»·PEaware :: N512SL KJFK-KEWR

N512SL :: KJFK-KEWR

FLIGHT INFORMATION

Flight Status: Arrived
Operator: Privately registered:
United States
More flights under this callsign
Pilot: Ray S. (3734)
Aircraft: CANADAIR CL-600 CHALLENGER
(CL60)
More flights by this aircraft type
Origin: KJFK Kennedy Intl
United States
Destination: KEWR Newark Intl
United States
More flights between these airports :: More routes between these airports
Route: JFK5 V16 DIXIE V276 RBV V249 SBJ
File this flight plan on PilotEdge
Remarks:
Altitude:
(Current/Filed)
6,000ft
Speed:
(Current/Filed)
250kts
Departed: 01-Dec-22 05:24 AM
Arrived: 01-Dec-22 06:28 AM
Distance/Time
Traveled:
18nm/1:03
Distance/Time
To Go:
Arrived

Flight Plot

Page will automatically refresh every two minutes.

Flight plan parsing failed; only flown route is shown


Map Options




Map Legend


Flown Route
Filed Route
Departure Airport
Arrival Airport
Navaid (VOR, NDB)
Fix

Horizontal Profiles

Position Reports

Time Latitude Longitude Heading Altitude Ground
Speed
01-Dec-22 04:45 40.649934 -73.809825 300 15ft 0kts
01-Dec-22 04:46 40.649934 -73.809825 300 15ft 0kts
01-Dec-22 04:47 40.649934 -73.809825 300 15ft 0kts
01-Dec-22 04:48 40.649934 -73.809825 300 15ft 0kts
01-Dec-22 04:49 40.649934 -73.809825 300 15ft 0kts
01-Dec-22 04:50 40.649934 -73.809825 300 15ft 0kts
01-Dec-22 04:51 40.649934 -73.809825 300 15ft 0kts
01-Dec-22 04:52 40.649934 -73.809825 300 15ft 0kts
01-Dec-22 04:53 40.649934 -73.809825 300 15ft 0kts
01-Dec-22 04:54 40.649934 -73.809825 300 15ft 0kts
01-Dec-22 04:55 40.649934 -73.809825 300 15ft 0kts
01-Dec-22 04:56 40.649934 -73.809825 300 15ft 0kts
01-Dec-22 04:57 40.649934 -73.809825 300 15ft 0kts
01-Dec-22 04:58 40.649934 -73.809825 300 15ft 0kts
01-Dec-22 04:59 40.649934 -73.809825 300 15ft 0kts
01-Dec-22 05:00 40.649934 -73.809825 300 15ft 0kts
01-Dec-22 05:01 40.649934 -73.809825 300 15ft 0kts
01-Dec-22 05:02 40.649934 -73.809825 300 15ft 0kts
01-Dec-22 05:03 40.649934 -73.809825 300 15ft 0kts
01-Dec-22 05:03 40.649934 -73.809825 300 15ft 0kts
01-Dec-22 05:05 40.649934 -73.809825 300 15ft 0kts
01-Dec-22 05:06 40.649934 -73.809825 300 15ft 0kts
01-Dec-22 05:07 40.649934 -73.809825 300 15ft 0kts
01-Dec-22 05:08 40.649934 -73.809825 300 15ft 0kts
01-Dec-22 05:09 40.649934 -73.809825 300 15ft 0kts
01-Dec-22 05:09 40.649934 -73.809825 300 15ft 0kts
01-Dec-22 05:10 40.649934 -73.809825 300 15ft 0kts
01-Dec-22 05:12 40.649934 -73.809825 300 15ft 0kts
01-Dec-22 05:13 40.649934 -73.809825 300 15ft 0kts
01-Dec-22 05:14 40.649934 -73.809825 300 15ft 0kts
01-Dec-22 05:14 40.649934 -73.809825 300 15ft 0kts
01-Dec-22 05:15 40.649934 -73.809825 300 15ft 0kts
01-Dec-22 05:16 40.649934 -73.809825 300 15ft 0kts
01-Dec-22 05:17 40.649988 -73.809927 306 15ft 5kts
01-Dec-22 05:19 40.649622 -73.813553 302 14ft 14kts
01-Dec-22 05:19 40.650136 -73.815145 224 14ft 3kts
01-Dec-22 05:20 40.649815 -73.815359 207 14ft 2kts
01-Dec-22 05:21 40.648515 -73.816390 205 14ft 8kts
01-Dec-22 05:22 40.648095 -73.816123 116 14ft 0kts
01-Dec-22 05:23 40.636339 -73.788402 119 1400ft 156kts
01-Dec-22 05:24 40.605629 -73.756568 147 4098ft 176kts
01-Dec-22 05:25 40.549137 -73.708529 147 5854ft 275kts
01-Dec-22 05:26 40.480794 -73.677390 210 5872ft 272kts
01-Dec-22 05:27 40.427193 -73.748050 227 5879ft 272kts
01-Dec-22 05:28 40.371011 -73.812495 190 5875ft 272kts
01-Dec-22 05:29 40.304314 -73.848614 236 5890ft 271kts
01-Dec-22 05:30 40.262899 -73.930897 237 5878ft 271kts
01-Dec-22 05:31 40.221260 -74.013882 237 5878ft 271kts
01-Dec-22 05:32 40.173244 -74.089805 227 5877ft 272kts
01-Dec-22 05:33 40.116766 -74.155556 239 5865ft 271kts
01-Dec-22 05:34 40.127603 -74.247816 311 5764ft 262kts
01-Dec-22 05:35 40.196053 -74.275672 347 4880ft 265kts
01-Dec-22 05:36 40.268804 -74.295983 347 4877ft 266kts
01-Dec-22 05:37 40.341826 -74.316398 347 4877ft 266kts
01-Dec-22 05:38 40.408417 -74.330210 357 4893ft 223kts
01-Dec-22 05:39 40.465640 -74.308107 24 4716ft 201kts
01-Dec-22 05:40 40.517486 -74.275744 25 3231ft 207kts
01-Dec-22 05:41 40.569266 -74.242983 25 2373ft 199kts
01-Dec-22 05:42 40.611642 -74.216107 24 1481ft 134kts
01-Dec-22 05:43 40.643817 -74.195742 24 838ft 126kts
01-Dec-22 05:44 40.675376 -74.175698 24 179ft 124kts
01-Dec-22 05:45 40.706396 -74.150023 46 1359ft 130kts
01-Dec-22 05:46 40.740186 -74.105733 17 2348ft 228kts
01-Dec-22 05:47 40.766789 -74.160572 257 2891ft 219kts
01-Dec-22 05:48 40.752033 -74.238362 245 2858ft 218kts
01-Dec-22 05:49 40.699488 -74.279234 207 2880ft 220kts
01-Dec-22 05:50 40.643990 -74.315901 207 2877ft 220kts
01-Dec-22 05:51 40.588940 -74.352287 207 2877ft 220kts
01-Dec-22 05:52 40.533837 -74.388714 207 2877ft 220kts
01-Dec-22 05:53 40.494261 -74.346506 102 2884ft 222kts
01-Dec-22 05:54 40.519139 -74.277567 57 1904ft 214kts
01-Dec-22 05:55 40.568102 -74.242524 18 1892ft 184kts
01-Dec-22 05:56 40.611479 -74.214516 26 1598ft 144kts
01-Dec-22 05:57 40.644234 -74.194695 19 963ft 126kts
01-Dec-22 05:58 40.675820 -74.175427 24 172ft 123kts
01-Dec-22 05:59 40.706011 -74.145911 47 1600ft 166kts
01-Dec-22 06:00 40.750874 -74.120808 349 3072ft 216kts
01-Dec-22 06:01 40.796509 -74.158058 262 3086ft 218kts
01-Dec-22 06:02 40.782803 -74.236673 257 2890ft 216kts
01-Dec-22 06:03 40.739312 -74.286798 207 2880ft 220kts
01-Dec-22 06:04 40.684064 -74.323319 207 2878ft 220kts
01-Dec-22 06:05 40.628915 -74.359790 207 2877ft 220kts
01-Dec-22 06:06 40.573756 -74.396283 207 2877ft 220kts
01-Dec-22 06:07 40.522344 -74.392799 108 2890ft 219kts
01-Dec-22 06:08 40.518048 -74.316872 57 2554ft 213kts
01-Dec-22 06:09 40.553020 -74.254131 26 1887ft 212kts
01-Dec-22 06:10 40.600078 -74.223479 25 1735ft 173kts
01-Dec-22 06:11 40.636688 -74.200251 24 988ft 128kts
01-Dec-22 06:12 40.668422 -74.180118 24 323ft 125kts
01-Dec-22 06:13 40.699566 -74.156884 49 912ft 132kts
01-Dec-22 06:14 40.736101 -74.110564 12 2786ft 216kts
01-Dec-22 06:15 40.779593 -74.159771 307 2886ft 216kts
01-Dec-22 06:16 40.793001 -74.231715 257 2883ft 218kts
01-Dec-22 06:17 40.756831 -74.289731 207 2882ft 220kts
01-Dec-22 06:18 40.701702 -74.326186 207 2878ft 220kts
01-Dec-22 06:19 40.646669 -74.362596 207 2877ft 220kts
01-Dec-22 06:20 40.590039 -74.384600 151 2869ft 222kts
01-Dec-22 06:21 40.537721 -74.340653 147 2880ft 222kts
01-Dec-22 06:22 40.525971 -74.278146 43 2012ft 210kts
01-Dec-22 06:23 40.572841 -74.240694 24 1594ft 173kts
01-Dec-22 06:24 40.616653 -74.212969 24 1578ft 173kts
01-Dec-22 06:25 40.654906 -74.188693 24 565ft 128kts
01-Dec-22 06:26 40.685067 -74.169577 24 23ft 112kts
01-Dec-22 06:27 40.698062 -74.162347 297 14ft 17kts
01-Dec-22 06:28 40.698210 -74.162712 297 14ft 0kts
01-Dec-22 06:29 40.698210 -74.162712 297 14ft 0kts
01-Dec-22 06:30 40.698210 -74.162712 297 14ft 0kts
01-Dec-22 06:31 40.698858 -74.164483 294 14ft 17kts
01-Dec-22 06:32 40.699038 -74.165723 277 14ft 0kts
01-Dec-22 06:33 40.696370 -74.167738 204 14ft 23kts
01-Dec-22 06:34 40.690978 -74.171128 209 14ft 27kts
01-Dec-22 06:35 40.684539 -74.175251 208 14ft 29kts
01-Dec-22 06:36 40.681559 -74.177799 298 14ft 0kts
01-Dec-22 06:37 40.681559 -74.177799 298 14ft 0kts
01-Dec-22 06:38 40.681559 -74.177799 298 14ft 0kts
01-Dec-22 06:39 40.681559 -74.177799 298 14ft 0kts
01-Dec-22 06:40 40.681559 -74.177799 298 14ft 0kts
01-Dec-22 06:41 40.681559 -74.177799 298 14ft 0kts

Navigation Log

Ident Type
Flight plan parsing failed, navigation log unavailable